sensor_id;sensor_type;location;lat;lon;timestamp;P1;durP1;ratioP1;P2;durP2;ratioP2
40815;SDS011;26535;48.788;9.214;2023-05-10T05:03:42;1.48;;;0.40;;
40815;SDS011;26535;48.788;9.214;2023-05-10T05:06:08;1.40;;;0.50;;
40815;SDS011;26535;48.788;9.214;2023-05-10T05:08:34;1.75;;;0.63;;
40815;SDS011;26535;48.788;9.214;2023-05-10T05:11:00;2.00;;;0.40;;
40815;SDS011;26535;48.788;9.214;2023-05-10T05:13:25;1.30;;;0.50;;
40815;SDS011;26535;48.788;9.214;2023-05-10T05:15:51;1.23;;;0.40;;
40815;SDS011;26535;48.788;9.214;2023-05-10T05:18:17;1.60;;;0.50;;
40815;SDS011;26535;48.788;9.214;2023-05-10T05:20:42;4.15;;;0.47;;
40815;SDS011;26535;48.788;9.214;2023-05-10T05:23:08;1.65;;;0.40;;
40815;SDS011;26535;48.788;9.214;2023-05-10T05:25:34;1.52;;;0.50;;
40815;SDS011;26535;48.788;9.214;2023-05-10T05:28:00;1.27;;;0.60;;
40815;SDS011;26535;48.788;9.214;2023-05-10T05:30:26;2.92;;;0.68;;
40815;SDS011;26535;48.788;9.214;2023-05-10T05:32:52;1.70;;;0.60;;
40815;SDS011;26535;48.788;9.214;2023-05-10T05:35:18;1.83;;;0.75;;
40815;SDS011;26535;48.788;9.214;2023-05-10T05:37:43;2.38;;;0.60;;
40815;SDS011;26535;48.788;9.214;2023-05-10T05:40:12;1.67;;;0.52;;
40815;SDS011;26535;48.788;9.214;2023-05-10T05:42:38;2.17;;;0.60;;
40815;SDS011;26535;48.788;9.214;2023-05-10T05:45:03;3.05;;;0.40;;
40815;SDS011;26535;48.788;9.214;2023-05-10T05:47:30;2.05;;;0.70;;
40815;SDS011;26535;48.788;9.214;2023-05-10T05:49:56;2.05;;;0.57;;
40815;SDS011;26535;48.788;9.214;2023-05-10T05:52:21;2.42;;;0.73;;
40815;SDS011;26535;48.788;9.214;2023-05-10T05:54:47;1.15;;;0.45;;
40815;SDS011;26535;48.788;9.214;2023-05-10T05:57:13;3.13;;;1.20;;
40815;SDS011;26535;48.788;9.214;2023-05-10T05:59:39;2.25;;;0.47;;
40815;SDS011;26535;48.788;9.214;2023-05-10T06:02:09;2.40;;;0.50;;
40815;SDS011;26535;48.788;9.214;2023-05-10T06:04:35;1.92;;;0.77;;
40815;SDS011;26535;48.788;9.214;2023-05-10T06:07:00;2.53;;;0.60;;
40815;SDS011;26535;48.788;9.214;2023-05-10T06:09:26;1.95;;;0.57;;
40815;SDS011;26535;48.788;9.214;2023-05-10T06:11:52;4.63;;;0.77;;
40815;SDS011;26535;48.788;9.214;2023-05-10T06:14:19;1.98;;;0.60;;
40815;SDS011;26535;48.788;9.214;2023-05-10T06:16:45;1.85;;;0.50;;
40815;SDS011;26535;48.788;9.214;2023-05-10T06:19:11;4.15;;;0.85;;
40815;SDS011;26535;48.788;9.214;2023-05-10T06:21:37;1.30;;;0.55;;
40815;SDS011;26535;48.788;9.214;2023-05-10T06:24:03;2.22;;;0.90;;
40815;SDS011;26535;48.788;9.214;2023-05-10T06:26:30;1.48;;;0.57;;
40815;SDS011;26535;48.788;9.214;2023-05-10T06:28:56;3.22;;;0.55;;
40815;SDS011;26535;48.788;9.214;2023-05-10T06:31:21;2.75;;;0.73;;
40815;SDS011;26535;48.788;9.214;2023-05-10T06:33:47;1.75;;;0.50;;
40815;SDS011;26535;48.788;9.214;2023-05-10T06:36:13;1.90;;;0.60;;
40815;SDS011;26535;48.788;9.214;2023-05-10T06:38:39;1.90;;;0.70;;
40815;SDS011;26535;48.788;9.214;2023-05-10T06:41:04;2.53;;;0.63;;
40815;SDS011;26535;48.788;9.214;2023-05-10T06:43:30;2.53;;;0.93;;
40815;SDS011;26535;48.788;9.214;2023-05-10T06:45:56;2.15;;;0.70;;
40815;SDS011;26535;48.788;9.214;2023-05-10T06:48:22;1.30;;;0.47;;
40815;SDS011;26535;48.788;9.214;2023-05-10T06:50:48;2.58;;;0.70;;
40815;SDS011;26535;48.788;9.214;2023-05-10T06:53:14;2.13;;;0.70;;
40815;SDS011;26535;48.788;9.214;2023-05-10T06:55:40;2.63;;;0.73;;
40815;SDS011;26535;48.788;9.214;2023-05-10T06:58:06;1.83;;;0.70;;
40815;SDS011;26535;48.788;9.214;2023-05-10T07:00:31;3.20;;;0.65;;
40815;SDS011;26535;48.788;9.214;2023-05-10T07:02:57;2.55;;;0.77;;
40815;SDS011;26535;48.788;9.214;2023-05-10T07:05:23;2.05;;;0.60;;
40815;SDS011;26535;48.788;9.214;2023-05-10T07:07:49;1.23;;;0.50;;
40815;SDS011;26535;48.788;9.214;2023-05-10T07:10:15;1.98;;;0.70;;
40815;SDS011;26535;48.788;9.214;2023-05-10T07:12:41;2.72;;;0.70;;
40815;SDS011;26535;48.788;9.214;2023-05-10T07:15:07;1.90;;;0.63;;
40815;SDS011;26535;48.788;9.214;2023-05-10T07:17:33;2.30;;;0.60;;
40815;SDS011;26535;48.788;9.214;2023-05-10T07:19:59;1.95;;;0.80;;
40815;SDS011;26535;48.788;9.214;2023-05-10T07:22:25;1.48;;;0.63;;
40815;SDS011;26535;48.788;9.214;2023-05-10T07:24:51;2.78;;;0.52;;
40815;SDS011;26535;48.788;9.214;2023-05-10T07:27:16;2.03;;;0.50;;
40815;SDS011;26535;48.788;9.214;2023-05-10T07:29:42;2.65;;;0.70;;
40815;SDS011;26535;48.788;9.214;2023-05-10T07:32:08;1.52;;;0.50;;
40815;SDS011;26535;48.788;9.214;2023-05-10T07:34:33;1.30;;;0.52;;
40815;SDS011;26535;48.788;9.214;2023-05-10T07:36:59;1.85;;;0.60;;
40815;SDS011;26535;48.788;9.214;2023-05-10T07:39:26;2.85;;;0.60;;
40815;SDS011;26535;48.788;9.214;2023-05-10T07:41:52;2.97;;;0.60;;
40815;SDS011;26535;48.788;9.214;2023-05-10T07:44:19;1.35;;;0.60;;
40815;SDS011;26535;48.788;9.214;2023-05-10T07:46:45;4.38;;;0.60;;
40815;SDS011;26535;48.788;9.214;2023-05-10T07:49:12;1.83;;;0.60;;
40815;SDS011;26535;48.788;9.214;2023-05-10T07:51:38;1.00;;;0.40;;
40815;SDS011;26535;48.788;9.214;2023-05-10T07:54:04;1.48;;;0.40;;
40815;SDS011;26535;48.788;9.214;2023-05-10T07:56:30;1.23;;;0.50;;
40815;SDS011;26535;48.788;9.214;2023-05-10T07:58:57;2.72;;;0.47;;
40815;SDS011;26535;48.788;9.214;2023-05-10T08:01:26;2.88;;;0.70;;
40815;SDS011;26535;48.788;9.214;2023-05-10T08:03:56;2.00;;;0.60;;
40815;SDS011;26535;48.788;9.214;2023-05-10T08:06:22;1.50;;;0.40;;
40815;SDS011;26535;48.788;9.214;2023-05-10T08:08:48;2.25;;;0.40;;
40815;SDS011;26535;48.788;9.214;2023-05-10T08:11:16;1.30;;;0.37;;
40815;SDS011;26535;48.788;9.214;2023-05-10T08:13:42;1.70;;;0.30;;
40815;SDS011;26535;48.788;9.214;2023-05-10T08:16:09;1.40;;;0.30;;
40815;SDS011;26535;48.788;9.214;2023-05-10T08:18:34;1.58;;;0.30;;
40815;SDS011;26535;48.788;9.214;2023-05-10T08:21:00;2.60;;;0.30;;
40815;SDS011;26535;48.788;9.214;2023-05-10T08:23:26;1.52;;;0.40;;
40815;SDS011;26535;48.788;9.214;2023-05-10T08:25:51;2.63;;;0.40;;
40815;SDS011;26535;48.788;9.214;2023-05-10T08:28:17;2.80;;;0.30;;
40815;SDS011;26535;48.788;9.214;2023-05-10T08:30:44;1.50;;;0.35;;
40815;SDS011;26535;48.788;9.214;2023-05-10T08:33:10;1.88;;;0.30;;
40815;SDS011;26535;48.788;9.214;2023-05-10T08:35:35;1.75;;;0.38;;
40815;SDS011;26535;48.788;9.214;2023-05-10T08:38:01;1.05;;;0.40;;
40815;SDS011;26535;48.788;9.214;2023-05-10T08:40:27;5.80;;;0.60;;
40815;SDS011;26535;48.788;9.214;2023-05-10T08:42:55;1.70;;;0.60;;
40815;SDS011;26535;48.788;9.214;2023-05-10T08:45:26;0.68;;;0.32;;
40815;SDS011;26535;48.788;9.214;2023-05-10T08:47:56;0.90;;;0.30;;
40815;SDS011;26535;48.788;9.214;2023-05-10T08:50:24;1.27;;;0.32;;
40815;SDS011;26535;48.788;9.214;2023-05-10T08:52:50;2.55;;;0.40;;
40815;SDS011;26535;48.788;9.214;2023-05-10T08:55:20;1.50;;;0.57;;
40815;SDS011;26535;48.788;9.214;2023-05-10T08:57:48;4.47;;;0.63;;
40815;SDS011;26535;48.788;9.214;2023-05-10T09:00:14;1.58;;;0.32;;
40815;SDS011;26535;48.788;9.214;2023-05-10T09:02:42;1.13;;;0.30;;
40815;SDS011;26535;48.788;9.214;2023-05-10T09:05:08;0.80;;;0.20;;
40815;SDS011;26535;48.788;9.214;2023-05-10T09:07:35;1.08;;;0.22;;
40815;SDS011;26535;48.788;9.214;2023-05-10T09:10:02;0.93;;;0.20;;
40815;SDS011;26535;48.788;9.214;2023-05-10T09:12:28;0.90;;;0.30;;
40815;SDS011;26535;48.788;9.214;2023-05-10T09:14:54;1.10;;;0.13;;
40815;SDS011;26535;48.788;9.214;2023-05-10T09:17:23;0.90;;;0.30;;
40815;SDS011;26535;48.788;9.214;2023-05-10T09:19:50;3.13;;;0.20;;
40815;SDS011;26535;48.788;9.214;2023-05-10T09:22:22;1.08;;;0.28;;
40815;SDS011;26535;48.788;9.214;2023-05-10T09:24:48;0.60;;;0.20;;
40815;SDS011;26535;48.788;9.214;2023-05-10T09:27:28;0.80;;;0.30;;
40815;SDS011;26535;48.788;9.214;2023-05-10T09:29:53;2.30;;;0.55;;
40815;SDS011;26535;48.788;9.214;2023-05-10T09:32:20;0.85;;;0.20;;
40815;SDS011;26535;48.788;9.214;2023-05-10T09:34:45;1.05;;;0.15;;
40815;SDS011;26535;48.788;9.214;2023-05-10T09:37:15;0.88;;;0.20;;
40815;SDS011;26535;48.788;9.214;2023-05-10T09:39:40;1.83;;;0.20;;
40815;SDS011;26535;48.788;9.214;2023-05-10T09:42:07;0.85;;;0.40;;
40815;SDS011;26535;48.788;9.214;2023-05-10T09:44:34;0.60;;;0.20;;
40815;SDS011;26535;48.788;9.214;2023-05-10T09:47:00;2.97;;;0.20;;
40815;SDS011;26535;48.788;9.214;2023-05-10T09:49:27;0.95;;;0.30;;
40815;SDS011;26535;48.788;9.214;2023-05-10T09:51:59;0.40;;;0.10;;
40815;SDS011;26535;48.788;9.214;2023-05-10T09:54:30;1.45;;;0.30;;
40815;SDS011;26535;48.788;9.214;2023-05-10T09:56:56;1.75;;;0.30;;
40815;SDS011;26535;48.788;9.214;2023-05-10T09:59:22;3.47;;;0.30;;
40815;SDS011;26535;48.788;9.214;2023-05-10T10:01:51;1.15;;;0.30;;
40815;SDS011;26535;48.788;9.214;2023-05-10T10:04:17;0.50;;;0.10;;
40815;SDS011;26535;48.788;9.214;2023-05-10T10:06:46;0.80;;;0.20;;
40815;SDS011;26535;48.788;9.214;2023-05-10T10:09:11;1.63;;;0.20;;
40815;SDS011;26535;48.788;9.214;2023-05-10T10:11:38;0.93;;;0.20;;
40815;SDS011;26535;48.788;9.214;2023-05-10T10:14:06;0.98;;;0.20;;
40815;SDS011;26535;48.788;9.214;2023-05-10T10:16:32;2.03;;;0.40;;
40815;SDS011;26535;48.788;9.214;2023-05-10T10:18:58;1.55;;;0.25;;
40815;SDS011;26535;48.788;9.214;2023-05-10T10:21:23;1.30;;;0.20;;
40815;SDS011;26535;48.788;9.214;2023-05-10T10:23:49;0.85;;;0.30;;
40815;SDS011;26535;48.788;9.214;2023-05-10T10:26:16;0.98;;;0.30;;
40815;SDS011;26535;48.788;9.214;2023-05-10T10:29:18;1.25;;;0.28;;
40815;SDS011;26535;48.788;9.214;2023-05-10T10:31:45;1.23;;;0.28;;
40815;SDS011;26535;48.788;9.214;2023-05-10T10:34:26;0.93;;;0.38;;
40815;SDS011;26535;48.788;9.214;2023-05-10T10:36:53;0.88;;;0.22;;
40815;SDS011;26535;48.788;9.214;2023-05-10T10:39:20;1.65;;;0.13;;
40815;SDS011;26535;48.788;9.214;2023-05-10T10:44:23;2.97;;;0.20;;
40815;SDS011;26535;48.788;9.214;2023-05-10T10:49:42;1.38;;;0.40;;
40815;SDS011;26535;48.788;9.214;2023-05-10T10:52:30;3.25;;;0.40;;
40815;SDS011;26535;48.788;9.214;2023-05-10T10:55:19;2.35;;;0.60;;
40815;SDS011;26535;48.788;9.214;2023-05-10T10:57:51;1.45;;;0.45;;
40815;SDS011;26535;48.788;9.214;2023-05-10T11:02:53;1.23;;;0.20;;
40815;SDS011;26535;48.788;9.214;2023-05-10T11:07:59;2.20;;;0.30;;
40815;SDS011;26535;48.788;9.214;2023-05-10T11:10:25;1.05;;;0.20;;
40815;SDS011;26535;48.788;9.214;2023-05-10T11:17:58;0.95;;;0.40;;
40815;SDS011;26535;48.788;9.214;2023-05-10T11:20:26;1.88;;;0.40;;
40815;SDS011;26535;48.788;9.214;2023-05-10T11:22:58;1.30;;;0.30;;
40815;SDS011;26535;48.788;9.214;2023-05-10T11:25:43;1.35;;;0.40;;
40815;SDS011;26535;48.788;9.214;2023-05-10T11:28:10;2.47;;;0.50;;
40815;SDS011;26535;48.788;9.214;2023-05-10T11:30:40;2.42;;;0.50;;
40815;SDS011;26535;48.788;9.214;2023-05-10T11:33:08;1.48;;;0.38;;
40815;SDS011;26535;48.788;9.214;2023-05-10T11:35:38;1.50;;;0.40;;
40815;SDS011;26535;48.788;9.214;2023-05-10T11:38:11;1.20;;;0.40;;
40815;SDS011;26535;48.788;9.214;2023-05-10T11:40:38;4.13;;;0.40;;
40815;SDS011;26535;48.788;9.214;2023-05-10T11:43:05;2.00;;;0.30;;
40815;SDS011;26535;48.788;9.214;2023-05-10T11:45:33;1.98;;;0.30;;
40815;SDS011;26535;48.788;9.214;2023-05-10T11:48:00;1.38;;;0.32;;
40815;SDS011;26535;48.788;9.214;2023-05-10T11:50:26;0.70;;;0.20;;
40815;SDS011;26535;48.788;9.214;2023-05-10T11:52:53;0.75;;;0.20;;
40815;SDS011;26535;48.788;9.214;2023-05-10T11:55:20;0.53;;;0.30;;
40815;SDS011;26535;48.788;9.214;2023-05-10T11:57:46;0.85;;;0.20;;
40815;SDS011;26535;48.788;9.214;2023-05-10T12:00:12;1.60;;;0.20;;
40815;SDS011;26535;48.788;9.214;2023-05-10T12:02:40;1.13;;;0.30;;
40815;SDS011;26535;48.788;9.214;2023-05-10T12:05:07;1.10;;;0.30;;
40815;SDS011;26535;48.788;9.214;2023-05-10T12:07:33;1.50;;;0.47;;
40815;SDS011;26535;48.788;9.214;2023-05-10T12:10:09;1.63;;;0.30;;
40815;SDS011;26535;48.788;9.214;2023-05-10T12:12:40;2.58;;;0.57;;
40815;SDS011;26535;48.788;9.214;2023-05-10T12:15:19;1.05;;;0.32;;
40815;SDS011;26535;48.788;9.214;2023-05-10T12:17:47;2.35;;;0.50;;
40815;SDS011;26535;48.788;9.214;2023-05-10T12:20:17;3.42;;;0.50;;
40815;SDS011;26535;48.788;9.214;2023-05-10T12:22:55;2.35;;;0.60;;
40815;SDS011;26535;48.788;9.214;2023-05-10T12:25:23;1.10;;;0.40;;
40815;SDS011;26535;48.788;9.214;2023-05-10T12:27:53;2.40;;;0.32;;
40815;SDS011;26535;48.788;9.214;2023-05-10T12:30:24;1.40;;;0.40;;
40815;SDS011;26535;48.788;9.214;2023-05-10T12:32:51;3.05;;;0.40;;
40815;SDS011;26535;48.788;9.214;2023-05-10T12:35:17;1.85;;;0.32;;
40815;SDS011;26535;48.788;9.214;2023-05-10T12:37:47;1.80;;;0.30;;
40815;SDS011;26535;48.788;9.214;2023-05-10T12:40:13;2.30;;;0.30;;
40815;SDS011;26535;48.788;9.214;2023-05-10T12:42:39;2.58;;;0.43;;
40815;SDS011;26535;48.788;9.214;2023-05-10T12:45:05;1.17;;;0.40;;
40815;SDS011;26535;48.788;9.214;2023-05-10T12:47:32;4.10;;;0.75;;
40815;SDS011;26535;48.788;9.214;2023-05-10T12:49:59;2.45;;;0.40;;
40815;SDS011;26535;48.788;9.214;2023-05-10T12:52:26;1.45;;;0.40;;
40815;SDS011;26535;48.788;9.214;2023-05-10T12:54:52;2.38;;;0.50;;
40815;SDS011;26535;48.788;9.214;2023-05-10T12:57:18;4.57;;;0.50;;
40815;SDS011;26535;48.788;9.214;2023-05-10T12:59:45;2.70;;;0.50;;
40815;SDS011;26535;48.788;9.214;2023-05-10T13:02:10;2.67;;;0.40;;
40815;SDS011;26535;48.788;9.214;2023-05-10T13:04:36;2.15;;;0.52;;
40815;SDS011;26535;48.788;9.214;2023-05-10T13:07:07;1.60;;;0.30;;
40815;SDS011;26535;48.788;9.214;2023-05-10T13:09:34;3.10;;;0.50;;
40815;SDS011;26535;48.788;9.214;2023-05-10T13:12:00;1.83;;;0.50;;
40815;SDS011;26535;48.788;9.214;2023-05-10T13:14:26;2.85;;;0.57;;
40815;SDS011;26535;48.788;9.214;2023-05-10T13:16:52;1.73;;;0.43;;
40815;SDS011;26535;48.788;9.214;2023-05-10T13:19:17;1.70;;;0.50;;
40815;SDS011;26535;48.788;9.214;2023-05-10T13:21:43;1.98;;;0.45;;
40815;SDS011;26535;48.788;9.214;2023-05-10T13:24:09;4.97;;;0.65;;
40815;SDS011;26535;48.788;9.214;2023-05-10T13:26:38;2.80;;;0.65;;
40815;SDS011;26535;48.788;9.214;2023-05-10T13:29:05;2.88;;;0.68;;
40815;SDS011;26535;48.788;9.214;2023-05-10T13:31:31;1.88;;;0.40;;
40815;SDS011;26535;48.788;9.214;2023-05-10T13:33:56;1.92;;;0.30;;
40815;SDS011;26535;48.788;9.214;2023-05-10T13:36:22;1.35;;;0.45;;
40815;SDS011;26535;48.788;9.214;2023-05-10T13:38:48;2.35;;;0.50;;
40815;SDS011;26535;48.788;9.214;2023-05-10T13:41:14;1.48;;;0.40;;
40815;SDS011;26535;48.788;9.214;2023-05-10T13:43:39;3.00;;;0.47;;
40815;SDS011;26535;48.788;9.214;2023-05-10T13:46:05;2.85;;;0.20;;
40815;SDS011;26535;48.788;9.214;2023-05-10T13:48:31;3.58;;;0.50;;
40815;SDS011;26535;48.788;9.214;2023-05-10T13:50:56;2.15;;;0.30;;
40815;SDS011;26535;48.788;9.214;2023-05-10T13:53:22;3.67;;;0.50;;
40815;SDS011;26535;48.788;9.214;2023-05-10T13:55:48;2.83;;;0.43;;
40815;SDS011;26535;48.788;9.214;2023-05-10T13:58:14;1.33;;;0.28;;
40815;SDS011;26535;48.788;9.214;2023-05-10T14:00:39;2.47;;;0.57;;
40815;SDS011;26535;48.788;9.214;2023-05-10T14:03:05;1.50;;;0.50;;
40815;SDS011;26535;48.788;9.214;2023-05-10T14:05:32;2.90;;;0.50;;
40815;SDS011;26535;48.788;9.214;2023-05-10T14:07:57;2.83;;;0.40;;
40815;SDS011;26535;48.788;9.214;2023-05-10T14:10:23;1.10;;;0.30;;
40815;SDS011;26535;48.788;9.214;2023-05-10T14:12:49;1.70;;;0.30;;
40815;SDS011;26535;48.788;9.214;2023-05-10T14:15:15;1.08;;;0.32;;
40815;SDS011;26535;48.788;9.214;2023-05-10T14:17:41;1.60;;;0.45;;
40815;SDS011;26535;48.788;9.214;2023-05-10T14:20:07;1.00;;;0.30;;
40815;SDS011;26535;48.788;9.214;2023-05-10T14:22:33;1.83;;;0.55;;
40815;SDS011;26535;48.788;9.214;2023-05-10T14:24:59;2.67;;;0.50;;
40815;SDS011;26535;48.788;9.214;2023-05-10T14:27:25;2.35;;;0.30;;
40815;SDS011;26535;48.788;9.214;2023-05-10T14:29:51;2.70;;;0.30;;
40815;SDS011;26535;48.788;9.214;2023-05-10T14:32:18;2.38;;;0.40;;
40815;SDS011;26535;48.788;9.214;2023-05-10T14:34:43;1.95;;;0.30;;
40815;SDS011;26535;48.788;9.214;2023-05-10T14:37:10;1.77;;;0.20;;
40815;SDS011;26535;48.788;9.214;2023-05-10T14:39:36;1.05;;;0.20;;
40815;SDS011;26535;48.788;9.214;2023-05-10T14:42:02;1.75;;;0.40;;
40815;SDS011;26535;48.788;9.214;2023-05-10T14:44:29;1.02;;;0.20;;
40815;SDS011;26535;48.788;9.214;2023-05-10T14:46:54;1.55;;;0.40;;
40815;SDS011;26535;48.788;9.214;2023-05-10T14:49:21;4.38;;;0.57;;
40815;SDS011;26535;48.788;9.214;2023-05-10T14:51:47;2.28;;;0.40;;
40815;SDS011;26535;48.788;9.214;2023-05-10T14:54:13;1.85;;;0.40;;
40815;SDS011;26535;48.788;9.214;2023-05-10T14:56:39;3.47;;;0.35;;
40815;SDS011;26535;48.788;9.214;2023-05-10T14:59:06;1.60;;;0.30;;
40815;SDS011;26535;48.788;9.214;2023-05-10T15:01:32;1.83;;;0.40;;
40815;SDS011;26535;48.788;9.214;2023-05-10T15:04:00;1.92;;;0.30;;
40815;SDS011;26535;48.788;9.214;2023-05-10T15:06:32;1.30;;;0.30;;
40815;SDS011;26535;48.788;9.214;2023-05-10T15:08:59;1.80;;;0.40;;
40815;SDS011;26535;48.788;9.214;2023-05-10T15:11:26;3.10;;;0.40;;
40815;SDS011;26535;48.788;9.214;2023-05-10T15:13:52;1.83;;;0.50;;
40815;SDS011;26535;48.788;9.214;2023-05-10T15:16:18;1.77;;;0.40;;
40815;SDS011;26535;48.788;9.214;2023-05-10T15:18:44;2.90;;;0.50;;
40815;SDS011;26535;48.788;9.214;2023-05-10T15:21:10;1.50;;;0.30;;
40815;SDS011;26535;48.788;9.214;2023-05-10T15:23:36;1.80;;;0.30;;
40815;SDS011;26535;48.788;9.214;2023-05-10T15:26:02;2.50;;;0.30;;
40815;SDS011;26535;48.788;9.214;2023-05-10T15:28:28;1.73;;;0.40;;
40815;SDS011;26535;48.788;9.214;2023-05-10T15:30:54;2.90;;;0.50;;
40815;SDS011;26535;48.788;9.214;2023-05-10T15:33:21;2.22;;;0.30;;
40815;SDS011;26535;48.788;9.214;2023-05-10T15:35:47;2.45;;;0.57;;
40815;SDS011;26535;48.788;9.214;2023-05-10T15:38:12;2.42;;;0.70;;
40815;SDS011;26535;48.788;9.214;2023-05-10T15:40:38;2.72;;;0.60;;
40815;SDS011;26535;48.788;9.214;2023-05-10T15:43:04;2.75;;;0.70;;
40815;SDS011;26535;48.788;9.214;2023-05-10T15:47:58;1.80;;;0.20;;
40815;SDS011;26535;48.788;9.214;2023-05-10T15:50:24;1.33;;;0.40;;
40815;SDS011;26535;48.788;9.214;2023-05-10T15:52:50;2.60;;;0.40;;
40815;SDS011;26535;48.788;9.214;2023-05-10T15:55:16;1.35;;;0.30;;
40815;SDS011;26535;48.788;9.214;2023-05-10T15:57:42;0.95;;;0.20;;
40815;SDS011;26535;48.788;9.214;2023-05-10T16:00:09;2.30;;;0.35;;
40815;SDS011;26535;48.788;9.214;2023-05-10T16:02:41;1.83;;;0.30;;
40815;SDS011;26535;48.788;9.214;2023-05-10T16:07:33;3.65;;;0.32;;
40815;SDS011;26535;48.788;9.214;2023-05-10T16:09:59;1.02;;;0.22;;
40815;SDS011;26535;48.788;9.214;2023-05-10T16:12:30;0.70;;;0.20;;
40815;SDS011;26535;48.788;9.214;2023-05-10T16:14:56;1.40;;;0.20;;
40815;SDS011;26535;48.788;9.214;2023-05-10T16:17:22;1.58;;;0.40;;
40815;SDS011;26535;48.788;9.214;2023-05-10T16:19:47;2.58;;;0.75;;
40815;SDS011;26535;48.788;9.214;2023-05-10T16:22:13;1.05;;;0.20;;
40815;SDS011;26535;48.788;9.214;2023-05-10T16:24:39;1.38;;;0.40;;
40815;SDS011;26535;48.788;9.214;2023-05-10T16:27:05;2.72;;;0.40;;
40815;SDS011;26535;48.788;9.214;2023-05-10T16:29:31;1.33;;;0.30;;
40815;SDS011;26535;48.788;9.214;2023-05-10T16:31:57;1.35;;;0.40;;
40815;SDS011;26535;48.788;9.214;2023-05-10T16:34:22;1.13;;;0.30;;
40815;SDS011;26535;48.788;9.214;2023-05-10T16:36:49;0.95;;;0.25;;
40815;SDS011;26535;48.788;9.214;2023-05-10T16:39:15;1.15;;;0.17;;
40815;SDS011;26535;48.788;9.214;2023-05-10T16:41:41;1.85;;;0.38;;
40815;SDS011;26535;48.788;9.214;2023-05-10T16:44:07;2.10;;;0.35;;
40815;SDS011;26535;48.788;9.214;2023-05-10T16:46:32;1.38;;;0.40;;
40815;SDS011;26535;48.788;9.214;2023-05-10T16:48:58;1.05;;;0.38;;
40815;SDS011;26535;48.788;9.214;2023-05-10T16:51:24;0.98;;;0.30;;
40815;SDS011;26535;48.788;9.214;2023-05-10T16:53:50;1.77;;;0.30;;
40815;SDS011;26535;48.788;9.214;2023-05-10T16:56:17;2.03;;;0.70;;
40815;SDS011;26535;48.788;9.214;2023-05-10T16:58:43;1.13;;;0.30;;
40815;SDS011;26535;48.788;9.214;2023-05-10T17:01:08;1.25;;;0.20;;
40815;SDS011;26535;48.788;9.214;2023-05-10T17:03:34;2.65;;;0.30;;
40815;SDS011;26535;48.788;9.214;2023-05-10T17:06:00;0.93;;;0.20;;
40815;SDS011;26535;48.788;9.214;2023-05-10T17:08:26;2.75;;;0.52;;
40815;SDS011;26535;48.788;9.214;2023-05-10T17:10:52;1.52;;;0.45;;
40815;SDS011;26535;48.788;9.214;2023-05-10T17:13:18;1.52;;;0.60;;
40815;SDS011;26535;48.788;9.214;2023-05-10T17:15:44;2.85;;;0.80;;
40815;SDS011;26535;48.788;9.214;2023-05-10T17:18:11;1.83;;;0.55;;
40815;SDS011;26535;48.788;9.214;2023-05-10T17:20:36;1.65;;;0.50;;
40815;SDS011;26535;48.788;9.214;2023-05-10T17:23:02;1.65;;;0.47;;
40815;SDS011;26535;48.788;9.214;2023-05-10T17:25:28;1.02;;;0.30;;
40815;SDS011;26535;48.788;9.214;2023-05-10T17:27:53;1.75;;;0.20;;
40815;SDS011;26535;48.788;9.214;2023-05-10T17:30:19;0.77;;;0.20;;
40815;SDS011;26535;48.788;9.214;2023-05-10T17:32:50;0.85;;;0.32;;
40815;SDS011;26535;48.788;9.214;2023-05-10T17:35:18;1.85;;;0.40;;
40815;SDS011;26535;48.788;9.214;2023-05-10T17:37:45;1.95;;;0.32;;
40815;SDS011;26535;48.788;9.214;2023-05-10T17:40:11;2.00;;;0.30;;
40815;SDS011;26535;48.788;9.214;2023-05-10T17:42:36;1.80;;;0.40;;
40815;SDS011;26535;48.788;9.214;2023-05-10T17:45:02;1.40;;;0.30;;
40815;SDS011;26535;48.788;9.214;2023-05-10T17:47:28;2.60;;;0.43;;
40815;SDS011;26535;48.788;9.214;2023-05-10T17:49:54;1.10;;;0.20;;
40815;SDS011;26535;48.788;9.214;2023-05-10T17:52:19;1.10;;;0.35;;
40815;SDS011;26535;48.788;9.214;2023-05-10T17:54:45;1.88;;;0.40;;
40815;SDS011;26535;48.788;9.214;2023-05-10T17:57:11;3.13;;;0.57;;
40815;SDS011;26535;48.788;9.214;2023-05-10T17:59:36;1.35;;;0.28;;
40815;SDS011;26535;48.788;9.214;2023-05-10T18:02:02;2.42;;;0.28;;
40815;SDS011;26535;48.788;9.214;2023-05-10T18:04:28;1.13;;;0.30;;
40815;SDS011;26535;48.788;9.214;2023-05-10T18:06:53;1.00;;;0.30;;
40815;SDS011;26535;48.788;9.214;2023-05-10T18:09:25;2.20;;;0.40;;
40815;SDS011;26535;48.788;9.214;2023-05-10T18:11:51;1.55;;;0.40;;
40815;SDS011;26535;48.788;9.214;2023-05-10T18:14:17;1.10;;;0.50;;
40815;SDS011;26535;48.788;9.214;2023-05-10T18:16:43;2.67;;;0.63;;
40815;SDS011;26535;48.788;9.214;2023-05-10T18:19:09;1.77;;;0.60;;
40815;SDS011;26535;48.788;9.214;2023-05-10T18:21:34;1.48;;;0.50;;
40815;SDS011;26535;48.788;9.214;2023-05-10T18:24:01;1.33;;;0.40;;
40815;SDS011;26535;48.788;9.214;2023-05-10T18:26:27;2.35;;;0.60;;
40815;SDS011;26535;48.788;9.214;2023-05-10T18:28:53;1.98;;;0.50;;
40815;SDS011;26535;48.788;9.214;2023-05-10T18:31:18;1.77;;;0.50;;
40815;SDS011;26535;48.788;9.214;2023-05-10T18:33:44;2.40;;;0.55;;
40815;SDS011;26535;48.788;9.214;2023-05-10T18:36:10;1.48;;;0.40;;
40815;SDS011;26535;48.788;9.214;2023-05-10T18:38:36;2.10;;;0.55;;
40815;SDS011;26535;48.788;9.214;2023-05-10T18:41:02;2.13;;;0.80;;
40815;SDS011;26535;48.788;9.214;2023-05-10T18:43:28;2.50;;;0.47;;
40815;SDS011;26535;48.788;9.214;2023-05-10T18:45:54;3.05;;;0.70;;
40815;SDS011;26535;48.788;9.214;2023-05-10T18:48:19;3.20;;;0.50;;
40815;SDS011;26535;48.788;9.214;2023-05-10T18:50:45;2.38;;;0.50;;
40815;SDS011;26535;48.788;9.214;2023-05-10T18:53:11;2.28;;;0.60;;
40815;SDS011;26535;48.788;9.214;2023-05-10T18:55:36;2.22;;;0.60;;
40815;SDS011;26535;48.788;9.214;2023-05-10T18:58:02;3.17;;;0.63;;
40815;SDS011;26535;48.788;9.214;2023-05-10T19:00:28;2.33;;;0.60;;
40815;SDS011;26535;48.788;9.214;2023-05-10T19:02:54;2.53;;;0.60;;
40815;SDS011;26535;48.788;9.214;2023-05-10T19:05:19;1.85;;;0.60;;
40815;SDS011;26535;48.788;9.214;2023-05-10T19:07:45;1.92;;;0.50;;
40815;SDS011;26535;48.788;9.214;2023-05-10T19:10:11;2.10;;;0.70;;
40815;SDS011;26535;48.788;9.214;2023-05-10T19:12:37;4.03;;;0.60;;
40815;SDS011;26535;48.788;9.214;2023-05-10T19:15:05;1.85;;;0.75;;
40815;SDS011;26535;48.788;9.214;2023-05-10T19:17:31;2.25;;;0.65;;
40815;SDS011;26535;48.788;9.214;2023-05-10T19:19:57;2.03;;;0.70;;
40815;SDS011;26535;48.788;9.214;2023-05-10T19:22:23;3.20;;;1.00;;
40815;SDS011;26535;48.788;9.214;2023-05-10T19:24:49;1.88;;;0.77;;
40815;SDS011;26535;48.788;9.214;2023-05-10T19:27:15;3.58;;;0.90;;
40815;SDS011;26535;48.788;9.214;2023-05-10T19:29:41;2.72;;;0.80;;
40815;SDS011;26535;48.788;9.214;2023-05-10T19:32:06;2.40;;;0.80;;
40815;SDS011;26535;48.788;9.214;2023-05-10T19:34:33;3.38;;;0.68;;
40815;SDS011;26535;48.788;9.214;2023-05-10T19:36:58;2.58;;;0.75;;
40815;SDS011;26535;48.788;9.214;2023-05-10T19:39:24;3.03;;;0.95;;
40815;SDS011;26535;48.788;9.214;2023-05-10T19:41:50;2.88;;;0.75;;
40815;SDS011;26535;48.788;9.214;2023-05-10T19:44:16;3.80;;;0.85;;
40815;SDS011;26535;48.788;9.214;2023-05-10T19:46:42;3.00;;;0.88;;
40815;SDS011;26535;48.788;9.214;2023-05-10T19:49:07;1.73;;;0.90;;
40815;SDS011;26535;48.788;9.214;2023-05-10T19:51:33;1.70;;;0.70;;
40815;SDS011;26535;48.788;9.214;2023-05-10T19:53:59;3.17;;;0.85;;
40815;SDS011;26535;48.788;9.214;2023-05-10T19:56:24;2.42;;;0.93;;
40815;SDS011;26535;48.788;9.214;2023-05-10T19:58:51;3.67;;;0.82;;
40815;SDS011;26535;48.788;9.214;2023-05-10T20:01:16;1.85;;;0.70;;
40815;SDS011;26535;48.788;9.214;2023-05-10T20:03:42;2.95;;;0.90;;
40815;SDS011;26535;48.788;9.214;2023-05-10T20:06:08;2.38;;;0.80;;
40815;SDS011;26535;48.788;9.214;2023-05-10T20:08:33;3.35;;;0.90;;